Time;durP1;ratioP1;P1;durP2;ratioP2;P2;SDS_P1;SDS_P2;PMS_P1;PMS_P2;Temp;Humidity;BMP_temperature;BMP_pressure;BME280_temperature;BME280_humidity;BME280_pressure;Samples;Min_cycle;Max_cycle;Signal;HPM_P1;HPM_P2
2022/11/05 00:09:28;;;;;;;10.30;7.97;;;10.60;99.90;;;;;;5089057;28;20219;-39
2022/11/05 00:09:39;;;;;;;9.43;8.43;;;10.10;99.90;;;;;;5069942;28;20833;-38
2022/11/05 00:17:03;;;;;;;8.87;7.67;;;9.90;99.90;;;;;;5086211;28;20457;-38
2022/11/05 00:19:29;;;;;;;10.23;7.93;;;9.80;99.90;;;;;;5074045;28;20513;-38
2022/11/05 00:27:22;;;;;;;9.63;8.07;;;9.60;99.90;;;;;;5069581;28;20428;-39
2022/11/05 00:29:48;;;;;;;8.57;7.20;;;9.60;99.90;;;;;;5069514;28;20437;-38
2022/11/05 00:32:14;;;;;;;9.03;8.07;;;9.50;99.90;;;;;;5080858;28;20702;-38
2022/11/05 00:34:39;;;;;;;9.37;7.53;;;9.40;99.90;;;;;;5088258;28;20269;-38
2022/11/05 00:37:05;;;;;;;13.93;8.03;;;9.40;99.90;;;;;;5089771;28;20196;-39
2022/11/05 00:39:31;;;;;;;10.33;7.27;;;9.40;99.90;;;;;;5089287;28;20215;-38
2022/11/05 00:50:09;;;;;;;10.97;7.60;;;9.20;99.90;;;;;;5081558;28;20431;-38
2022/11/05 00:55:20;;;;;;;11.00;8.33;;;9.10;99.90;;;;;;5069550;28;20477;-38
2022/11/05 00:57:45;;;;;;;10.10;7.80;;;9.10;99.90;;;;;;5069499;28;20426;-38
2022/11/05 01:00:11;;;;;;;9.97;7.57;;;9.10;99.90;;;;;;5071532;28;20489;-38
2022/11/05 01:02:37;;;;;;;8.63;7.73;;;9.10;99.90;;;;;;5072778;28;20200;-38
2022/11/05 01:05:03;;;;;;;9.97;8.00;;;9.00;99.90;;;;;;5073072;28;20423;-38
2022/11/05 01:07:29;;;;;;;10.87;8.20;;;9.00;99.90;;;;;;5073291;28;20200;-38
2022/11/05 01:09:54;;;;;;;8.90;8.00;;;8.90;99.90;;;;;;5071393;28;20488;-39
2022/11/05 01:12:20;;;;;;;14.03;8.77;;;8.90;99.90;;;;;;5073203;28;20201;-38
2022/11/05 01:14:46;;;;;;;10.03;7.80;;;8.80;99.90;;;;;;5072858;28;20239;-38
2022/11/05 01:17:11;;;;;;;12.80;9.03;;;8.80;99.90;;;;;;5072989;28;20192;-38
2022/11/05 01:19:38;;;;;;;11.43;9.00;;;8.80;99.90;;;;;;5072575;28;20266;-38
2022/11/05 01:22:04;;;;;;;9.37;8.13;;;8.90;99.90;;;;;;5073942;28;20188;-38
2022/11/05 01:24:29;;;;;;;14.60;8.47;;;8.80;99.90;;;;;;5083081;28;20426;-37
2022/11/05 01:26:55;;;;;;;11.13;9.10;;;8.80;99.90;;;;;;5072644;28;20507;-38
2022/11/05 01:29:21;;;;;;;10.50;8.00;;;8.80;99.90;;;;;;5072629;28;20224;-38
2022/11/05 01:31:47;;;;;;;16.03;9.77;;;8.80;99.90;;;;;;5075621;28;20188;-38
2022/11/05 01:34:12;;;;;;;12.17;8.80;;;8.70;99.90;;;;;;5092011;28;20191;-38
2022/11/05 01:36:38;;;;;;;14.53;9.80;;;8.50;99.90;;;;;;5092696;28;20192;-38
2022/11/05 01:39:03;;;;;;;13.10;10.30;;;9.20;99.90;;;;;;5092666;28;20261;-38
2022/11/05 01:41:29;;;;;;;11.93;9.70;;;8.80;99.90;;;;;;5092964;28;20241;-38
2022/11/05 01:43:58;;;;;;;14.63;10.20;;;8.90;99.90;;;;;;5089076;28;20250;-38
2022/11/05 01:46:34;;;;;;;11.77;9.60;;;8.90;99.90;;;;;;5071278;28;20177;-38
2022/11/05 01:49:10;;;;;;;10.77;9.67;;;8.90;99.90;;;;;;5072252;28;20446;-38
2022/11/05 01:51:36;;;;;;;14.83;9.33;;;8.90;99.90;;;;;;5072611;28;20421;-38
2022/11/05 01:54:06;;;;;;;16.23;10.30;;;8.80;99.90;;;;;;5072184;28;20454;-37
2022/11/05 01:56:42;;;;;;;13.53;10.17;;;8.80;99.90;;;;;;5072605;28;20977;-37
2022/11/05 01:59:20;;;;;;;11.97;9.87;;;8.90;99.90;;;;;;5071949;28;20462;-38
2022/11/05 02:01:45;;;;;;;13.13;9.77;;;8.80;99.90;;;;;;5072417;28;20414;-38
2022/11/05 02:04:19;;;;;;;13.00;10.00;;;8.40;99.90;;;;;;5072204;28;20415;-38
2022/11/05 02:06:45;;;;;;;12.57;9.93;;;8.90;99.90;;;;;;5072066;28;20564;-37
2022/11/05 02:09:22;;;;;;;12.83;9.47;;;8.90;99.90;;;;;;5071598;28;20442;-38
2022/11/05 02:11:50;;;;;;;13.33;10.37;;;9.00;99.90;;;;;;5071392;28;20786;-38
2022/11/05 02:14:17;;;;;;;14.40;9.67;;;9.00;99.90;;;;;;5071919;28;20412;-38
2022/11/05 02:16:51;;;;;;;12.77;10.40;;;9.10;99.90;;;;;;5072024;28;20430;-38
2022/11/05 02:19:22;;;;;;;16.10;10.20;;;9.00;99.90;;;;;;5071770;28;20940;-37
2022/11/05 02:22:23;;;;;;;13.40;11.90;;;9.00;99.90;;;;;;5071833;28;20414;-38
2022/11/05 02:25:01;;;;;;;11.10;9.37;;;8.90;99.90;;;;;;5071766;28;20404;-37
2022/11/05 02:27:45;;;;;;;15.00;11.00;;;8.90;99.90;;;;;;5072000;28;20431;-38
2022/11/05 02:30:45;;;;;;;12.80;10.17;;;8.90;99.90;;;;;;5071381;28;20415;-38
2022/11/05 02:33:29;;;;;;;11.70;10.17;;;8.80;99.90;;;;;;5070768;28;20939;-37
2022/11/05 02:36:29;;;;;;;15.53;10.03;;;8.80;99.90;;;;;;5071609;28;20901;-37
2022/11/05 02:39:13;;;;;;;13.60;10.43;;;8.80;99.90;;;;;;5071577;28;20466;-39
2022/11/05 02:42:16;;;;;;;14.90;10.90;;;8.70;99.90;;;;;;5071539;28;20407;-38
2022/11/05 02:44:47;;;;;;;17.67;11.53;;;8.80;99.90;;;;;;5071116;28;20402;-37
2022/11/05 02:47:18;;;;;;;13.37;9.93;;;8.70;99.90;;;;;;5071529;28;20894;-38
2022/11/05 02:50:10;;;;;;;13.40;10.10;;;8.60;99.90;;;;;;5071119;28;20412;-37
2022/11/05 02:53:02;;;;;;;14.10;10.90;;;8.70;99.90;;;;;;5071047;28;20467;-38
2022/11/05 02:55:59;;;;;;;12.00;10.30;;;8.70;99.90;;;;;;5071489;28;20914;-38
2022/11/05 02:58:28;;;;;;;14.80;10.80;;;8.60;99.90;;;;;;5070910;28;20451;-38
2022/11/05 03:00:57;;;;;;;14.57;10.90;;;8.60;99.90;;;;;;5071301;28;20424;-37
2022/11/05 03:03:35;;;;;;;12.90;11.40;;;8.60;99.90;;;;;;5070623;28;20424;-38
2022/11/05 03:06:26;;;;;;;15.23;10.93;;;8.70;99.90;;;;;;5070962;28;20427;-38
2022/11/05 03:08:57;;;;;;;12.10;10.73;;;8.80;99.90;;;;;;5070501;28;20415;-38
2022/11/05 03:11:25;;;;;;;11.27;10.07;;;8.60;99.90;;;;;;5071192;28;20423;-38
2022/11/05 03:13:59;;;;;;;16.70;11.07;;;8.60;99.90;;;;;;5070418;28;20956;-38
2022/11/05 03:16:37;;;;;;;11.57;10.37;;;8.50;99.90;;;;;;5070869;28;20465;-37
2022/11/05 03:19:26;;;;;;;12.70;9.97;;;8.50;99.90;;;;;;5069633;28;20469;-38
2022/11/05 03:21:59;;;;;;;13.30;11.57;;;8.40;99.90;;;;;;5069790;28;20416;-38
2022/11/05 03:24:36;;;;;;;12.90;10.40;;;8.10;99.90;;;;;;5070240;28;20459;-38
2022/11/05 03:27:07;;;;;;;11.93;10.47;;;8.20;99.90;;;;;;5070802;28;20413;-38
2022/11/05 03:29:42;;;;;;;12.13;10.20;;;8.50;99.90;;;;;;5070354;28;20957;-38
2022/11/05 03:32:09;;;;;;;12.17;10.67;;;8.50;99.90;;;;;;5069343;28;20742;-37
2022/11/05 03:34:45;;;;;;;11.53;10.30;;;8.50;99.90;;;;;;5070287;28;20430;-38
2022/11/05 03:37:11;;;;;;;13.13;10.40;;;8.60;99.90;;;;;;5070615;28;20418;-38
2022/11/05 03:39:41;;;;;;;13.87;10.30;;;8.40;99.90;;;;;;5070104;28;20506;-38
2022/11/05 03:42:10;;;;;;;14.17;10.57;;;8.10;99.90;;;;;;5070363;28;20181;-38
2022/11/05 03:44:40;;;;;;;14.67;12.10;;;8.00;99.90;;;;;;5070277;28;20411;-38
2022/11/05 03:47:09;;;;;;;13.87;12.37;;;8.30;99.90;;;;;;5084220;28;20419;-38
2022/11/05 03:49:40;;;;;;;14.73;11.37;;;8.30;99.90;;;;;;5090414;28;20410;-37
2022/11/05 03:52:16;;;;;;;15.20;13.60;;;8.20;99.90;;;;;;5090597;28;20940;-37
2022/11/05 03:54:43;;;;;;;18.20;14.43;;;8.30;99.90;;;;;;5090084;28;20441;-38
2022/11/05 03:57:21;;;;;;;18.00;13.60;;;8.30;99.90;;;;;;5090467;28;20532;-37
2022/11/05 03:59:49;;;;;;;15.23;13.57;;;8.30;99.90;;;;;;5089928;28;21259;-38
2022/11/05 04:02:18;;;;;;;16.30;13.07;;;8.00;99.90;;;;;;5090530;28;20426;-38
2022/11/05 04:04:43;;;;;;;17.03;13.33;;;8.20;99.90;;;;;;5089951;28;20446;-37
2022/11/05 04:15:25;;;;;;;16.90;13.50;;;8.10;99.90;;;;;;5090211;28;20776;-38
2022/11/05 04:17:50;;;;;;;14.07;12.57;;;8.20;99.90;;;;;;5090280;28;20434;-38
2022/11/05 04:25:50;;;;;;;17.00;13.50;;;8.20;99.90;;;;;;5089755;28;20419;-38
2022/11/05 04:28:16;;;;;;;15.80;12.37;;;8.20;99.90;;;;;;5090129;28;20419;-38
2022/11/05 04:30:44;;;;;;;21.90;14.60;;;8.10;99.90;;;;;;5089487;28;20419;-38
2022/11/05 04:33:13;;;;;;;18.77;14.43;;;7.80;99.90;;;;;;5086633;28;20419;-38
2022/11/05 04:35:45;;;;;;;18.40;14.07;;;8.20;99.90;;;;;;5089551;28;20956;-38
2022/11/05 04:38:16;;;;;;;22.97;14.80;;;8.20;99.90;;;;;;5090018;28;20402;-38
2022/11/05 04:40:43;;;;;;;20.13;13.87;;;8.20;99.90;;;;;;5089447;28;20461;-38
2022/11/05 04:43:13;;;;;;;16.80;13.93;;;8.30;99.90;;;;;;5089728;28;20414;-38
2022/11/05 04:45:39;;;;;;;19.07;13.77;;;8.20;99.90;;;;;;5089705;28;20769;-38
2022/11/05 04:48:04;;;;;;;17.13;13.23;;;7.80;99.90;;;;;;5089991;28;20455;-38
2022/11/05 04:50:30;;;;;;;19.00;13.70;;;8.30;99.90;;;;;;5089640;28;20181;-38
2022/11/05 04:52:56;;;;;;;17.77;13.23;;;8.30;99.90;;;;;;5089449;28;20180;-38
2022/11/05 04:55:22;;;;;;;19.80;14.77;;;8.20;99.90;;;;;;5089886;28;20984;-38
2022/11/05 04:57:52;;;;;;;19.60;15.33;;;8.30;99.90;;;;;;5089675;28;20256;-39
2022/11/05 05:00:20;;;;;;;21.67;15.90;;;8.10;99.90;;;;;;5089290;28;20622;-37
2022/11/05 05:02:46;;;;;;;22.00;16.30;;;8.10;99.90;;;;;;5089305;28;20827;-38
2022/11/05 05:05:12;;;;;;;23.63;17.10;;;8.30;99.90;;;;;;5088199;28;20917;-38
2022/11/05 05:07:39;;;;;;;22.80;16.70;;;8.10;99.90;;;;;;5089646;28;20498;-38
2022/11/05 05:10:06;;;;;;;23.37;15.60;;;8.10;99.90;;;;;;5089313;28;20414;-38
2022/11/05 05:12:32;;;;;;;25.50;16.27;;;8.00;99.90;;;;;;5089449;28;20494;-38
2022/11/05 05:14:58;;;;;;;22.77;16.20;;;8.00;99.90;;;;;;5089208;28;20538;-38
2022/11/05 05:17:24;;;;;;;22.07;15.80;;;8.00;99.90;;;;;;5089842;28;20983;-38
2022/11/05 05:22:34;;;;;;;21.10;15.60;;;8.20;99.90;;;;;;5089340;28;20414;-37
2022/11/05 05:25:03;;;;;;;20.00;16.30;;;8.10;99.90;;;;;;5089092;28;20416;-38
2022/11/05 05:27:29;;;;;;;21.60;15.87;;;8.20;99.90;;;;;;5089740;28;21005;-38
2022/11/05 05:29:56;;;;;;;23.80;16.57;;;7.90;99.90;;;;;;5089212;28;20525;-38
2022/11/05 05:32:22;;;;;;;23.40;16.43;;;7.80;99.90;;;;;;5088075;28;20238;-38
2022/11/05 05:34:48;;;;;;;20.63;15.20;;;7.90;99.90;;;;;;5089167;28;20825;-38
2022/11/05 05:37:14;;;;;;;21.87;17.00;;;8.00;99.90;;;;;;5089339;28;20446;-38
2022/11/05 05:39:39;;;;;;;21.17;15.80;;;8.00;99.90;;;;;;5088643;28;20250;-37
2022/11/05 05:42:05;;;;;;;18.53;14.80;;;7.60;99.90;;;;;;5089408;28;20177;-38
2022/11/05 05:44:31;;;;;;;21.40;15.13;;;7.90;99.90;;;;;;5089333;28;20242;-37
2022/11/05 05:46:56;;;;;;;19.00;13.90;;;8.10;99.90;;;;;;5091048;28;20208;-37
2022/11/05 05:49:22;;;;;;;19.83;15.30;;;7.90;99.90;;;;;;5092737;28;20212;-39
2022/11/05 05:51:48;;;;;;;21.20;14.97;;;7.90;99.90;;;;;;5092653;28;20192;-38
2022/11/05 05:54:14;;;;;;;16.63;14.20;;;7.80;99.90;;;;;;5092526;28;20196;-38
2022/11/05 05:56:43;;;;;;;20.27;14.80;;;7.50;99.90;;;;;;5092709;28;20929;-38
2022/11/05 05:59:08;;;;;;;21.67;14.50;;;7.50;99.90;;;;;;5092303;28;20462;-38
2022/11/05 06:01:34;;;;;;;18.17;14.30;;;7.80;99.90;;;;;;5092681;28;20425;-38
2022/11/05 06:04:00;;;;;;;19.83;15.00;;;7.80;99.90;;;;;;5092542;28;20237;-38
2022/11/05 06:06:26;;;;;;;19.43;15.17;;;7.90;99.90;;;;;;5092402;28;20709;-38
2022/11/05 06:08:51;;;;;;;19.70;13.73;;;7.30;99.90;;;;;;5091838;28;20188;-37
2022/11/05 06:11:17;;;;;;;15.70;12.90;;;8.00;99.90;;;;;;5092596;28;20184;-38
2022/11/05 06:13:43;;;;;;;18.37;14.00;;;7.70;99.90;;;;;;5092031;28;20192;-38
2022/11/05 06:16:09;;;;;;;16.87;13.33;;;7.80;99.90;;;;;;5091365;28;20184;-37
2022/11/05 06:18:36;;;;;;;16.20;12.57;;;7.50;99.90;;;;;;5090416;28;20730;-38
2022/11/05 06:21:06;;;;;;;18.83;13.83;;;7.80;99.90;;;;;;5092357;28;20802;-38
2022/11/05 06:23:34;;;;;;;18.17;13.67;;;7.70;99.90;;;;;;5091833;28;20455;-37
2022/11/05 06:26:01;;;;;;;17.57;14.37;;;7.70;99.90;;;;;;5092203;28;20410;-38
2022/11/05 06:28:28;;;;;;;15.57;13.80;;;7.60;99.90;;;;;;5091839;28;20426;-38
2022/11/05 06:30:54;;;;;;;15.40;12.57;;;8.00;99.90;;;;;;5093712;28;20422;-38
2022/11/05 06:33:20;;;;;;;17.70;13.40;;;7.40;99.90;;;;;;5090394;28;20437;-38
2022/11/05 06:35:45;;;;;;;18.80;13.70;;;7.70;99.90;;;;;;5091792;28;20419;-38
2022/11/05 06:38:11;;;;;;;15.77;13.70;;;7.80;99.90;;;;;;5091852;28;20192;-38
2022/11/05 06:40:37;;;;;;;15.83;13.10;;;7.80;99.90;;;;;;5091547;28;20227;-37
2022/11/05 06:43:02;;;;;;;17.47;13.50;;;7.80;99.90;;;;;;5110853;28;20199;-37
2022/11/05 06:45:28;;;;;;;19.53;14.60;;;8.00;99.90;;;;;;5112104;28;20187;-37
2022/11/05 06:47:55;;;;;;;19.90;14.60;;;7.80;99.90;;;;;;5112196;28;20585;-38
2022/11/05 06:50:22;;;;;;;20.30;16.50;;;7.70;99.90;;;;;;5111607;28;20552;-38
2022/11/05 06:52:54;;;;;;;20.60;16.70;;;7.40;99.90;;;;;;5111729;28;20430;-38
2022/11/05 06:55:20;;;;;;;20.87;15.00;;;7.70;99.90;;;;;;5112061;28;21358;-38
2022/11/05 06:57:46;;;;;;;18.43;14.33;;;7.40;99.90;;;;;;5111549;28;20423;-37
2022/11/05 07:00:13;;;;;;;19.10;14.87;;;7.80;99.90;;;;;;5111525;28;20239;-38
2022/11/05 07:02:39;;;;;;;19.37;15.03;;;7.70;99.90;;;;;;5111565;28;20192;-38
2022/11/05 07:05:06;;;;;;;17.13;13.53;;;7.90;99.90;;;;;;5110107;28;20422;-38
2022/11/05 07:07:32;;;;;;;23.63;15.70;;;7.90;99.90;;;;;;5110467;28;20236;-38
2022/11/05 07:09:57;;;;;;;22.37;15.67;;;7.80;99.90;;;;;;5111069;28;20409;-37
2022/11/05 07:12:23;;;;;;;19.10;15.47;;;8.10;99.90;;;;;;5110368;28;20504;-38
2022/11/05 07:14:48;;;;;;;18.80;15.43;;;8.00;99.90;;;;;;5110735;28;20222;-38
2022/11/05 07:17:17;;;;;;;22.50;16.73;;;8.20;99.90;;;;;;5111505;28;20203;-38
2022/11/05 07:19:43;;;;;;;19.63;16.97;;;8.10;99.90;;;;;;5110922;28;20268;-38
2022/11/05 07:22:08;;;;;;;30.13;17.97;;;8.00;99.90;;;;;;5109720;28;20414;-38
2022/11/05 07:24:34;;;;;;;20.70;17.00;;;8.10;99.90;;;;;;5090969;28;20184;-38
2022/11/05 07:26:59;;;;;;;24.10;17.90;;;8.40;99.90;;;;;;5091044;28;20634;-38
2022/11/05 07:29:25;;;;;;;23.40;17.63;;;8.60;99.90;;;;;;5090549;28;20626;-38
2022/11/05 07:31:51;;;;;;;27.60;18.93;;;8.50;99.90;;;;;;5090818;28;20192;-39
2022/11/05 07:34:16;;;;;;;26.47;18.90;;;8.60;99.90;;;;;;5089072;28;20190;-38
2022/11/05 07:36:42;;;;;;;23.63;18.20;;;8.40;99.90;;;;;;5090891;28;20199;-38
2022/11/05 07:39:07;;;;;;;26.57;18.53;;;8.20;99.90;;;;;;5090318;28;20211;-38
2022/11/05 07:41:33;;;;;;;25.13;18.33;;;8.50;99.90;;;;;;5090796;28;20180;-38
2022/11/05 07:43:59;;;;;;;21.40;18.70;;;8.90;99.90;;;;;;5090038;28;20196;-38
2022/11/05 07:46:24;;;;;;;24.87;18.50;;;9.10;99.90;;;;;;5074141;28;20193;-38
2022/11/05 07:48:50;;;;;;;23.07;18.63;;;9.30;99.90;;;;;;5090139;28;20207;-38
2022/11/05 07:51:16;;;;;;;26.80;23.43;;;9.50;99.90;;;;;;5090471;28;20188;-38
2022/11/05 07:53:41;;;;;;;23.53;18.60;;;9.60;99.90;;;;;;5084192;28;20204;-38
2022/11/05 07:56:09;;;;;;;25.30;20.20;;;9.80;99.90;;;;;;5095203;28;20247;-38
2022/11/05 07:58:36;;;;;;;24.90;20.03;;;10.00;99.90;;;;;;5095502;28;20219;-38
2022/11/05 08:01:01;;;;;;;23.50;19.50;;;10.10;99.90;;;;;;5090966;28;20767;-38
2022/11/05 08:03:27;;;;;;;25.60;19.80;;;10.10;99.90;;;;;;5092150;28;20435;-38
2022/11/05 08:05:53;;;;;;;25.13;18.43;;;10.30;99.90;;;;;;5088027;28;20207;-38
2022/11/05 08:08:19;;;;;;;25.73;19.07;;;10.40;99.90;;;;;;5092243;28;20240;-38
2022/11/05 08:10:45;;;;;;;22.93;18.37;;;10.50;99.90;;;;;;5099128;28;20183;-38
2022/11/05 08:13:11;;;;;;;21.27;17.57;;;10.60;99.90;;;;;;5090504;28;20940;-37
2022/11/05 08:15:37;;;;;;;23.20;18.03;;;10.80;99.90;;;;;;5095007;28;20414;-38
2022/11/05 08:18:06;;;;;;;21.13;16.93;;;11.00;99.90;;;;;;5093065;28;20453;-38
2022/11/05 08:20:32;;;;;;;21.23;17.10;;;11.10;99.90;;;;;;5087692;28;20466;-38
2022/11/05 08:22:58;;;;;;;20.47;16.57;;;11.30;99.90;;;;;;5088640;28;20572;-38
2022/11/05 08:25:24;;;;;;;22.43;15.97;;;11.40;99.90;;;;;;5079450;28;20529;-38
2022/11/05 08:27:58;;;;;;;21.07;16.47;;;11.50;99.90;;;;;;5085198;28;20180;-38
2022/11/05 08:30:24;;;;;;;24.10;16.37;;;11.70;99.90;;;;;;5089595;28;20743;-38
2022/11/05 08:32:49;;;;;;;20.43;17.03;;;11.80;99.90;;;;;;5088062;28;20430;-38
2022/11/05 08:35:15;;;;;;;19.80;15.57;;;12.10;99.90;;;;;;5090000;28;20430;-38
2022/11/05 08:37:41;;;;;;;19.87;16.40;;;12.20;99.90;;;;;;5089877;28;20414;-38
2022/11/05 08:40:07;;;;;;;17.57;14.57;;;12.40;99.90;;;;;;5088379;28;20220;-38
2022/11/05 08:42:33;;;;;;;18.93;15.63;;;12.50;99.90;;;;;;5089621;28;20225;-38
2022/11/05 08:44:58;;;;;;;18.63;15.90;;;12.60;99.90;;;;;;5089598;28;20940;-38
2022/11/05 08:47:24;;;;;;;16.83;13.77;;;12.70;99.90;;;;;;5089917;28;20541;-38
2022/11/05 08:49:50;;;;;;;17.20;14.90;;;12.70;99.90;;;;;;5088525;28;20218;-39
2022/11/05 08:52:16;;;;;;;15.33;13.57;;;12.80;99.90;;;;;;5088573;28;20188;-38
2022/11/05 08:54:42;;;;;;;17.80;15.40;;;12.90;99.90;;;;;;5069867;28;20192;-38
2022/11/05 08:57:08;;;;;;;16.90;13.70;;;13.00;99.90;;;;;;5088612;28;20422;-38
2022/11/05 08:59:34;;;;;;;16.83;15.03;;;13.20;99.90;;;;;;5088104;28;20937;-38
2022/11/05 09:01:59;;;;;;;17.47;13.10;;;13.30;99.90;;;;;;5085783;28;20426;-38
2022/11/05 09:04:25;;;;;;;15.50;13.07;;;13.40;99.90;;;;;;5087983;28;20181;-38
2022/11/05 09:06:51;;;;;;;16.73;12.53;;;13.40;99.90;;;;;;5088394;28;20203;-38
2022/11/05 09:09:16;;;;;;;15.03;13.23;;;13.60;99.90;;;;;;5088178;28;20204;-38
2022/11/05 09:11:42;;;;;;;13.77;12.37;;;13.70;99.90;;;;;;5089074;28;20189;-38
2022/11/05 09:14:08;;;;;;;14.50;13.00;;;13.70;99.90;;;;;;5086959;28;20197;-38
2022/11/05 09:16:35;;;;;;;13.13;11.83;;;13.80;99.90;;;;;;5079740;28;20200;-38
2022/11/05 09:19:03;;;;;;;13.40;11.67;;;14.00;99.90;;;;;;5089035;28;20253;-38
2022/11/05 09:21:29;;;;;;;15.13;12.83;;;14.10;99.90;;;;;;5082356;28;20431;-38
2022/11/05 09:23:55;;;;;;;18.33;11.87;;;14.20;99.90;;;;;;5092287;28;20487;-38
2022/11/05 09:26:21;;;;;;;12.80;9.87;;;14.30;99.90;;;;;;5091844;28;20430;-38
2022/11/05 09:28:46;;;;;;;15.47;10.57;;;14.50;99.90;;;;;;5092937;28;20188;-38
2022/11/05 09:31:13;;;;;;;11.83;10.60;;;14.50;99.90;;;;;;5092985;28;20194;-39
2022/11/05 09:33:40;;;;;;;10.70;9.60;;;14.70;99.90;;;;;;5091346;28;20180;-38
2022/11/05 09:36:06;;;;;;;12.37;9.20;;;14.80;99.90;;;;;;5093251;28;20422;-38
2022/11/05 09:38:36;;;;;;;13.30;9.33;;;14.80;99.90;;;;;;5092415;28;20433;-38
2022/11/05 09:41:06;;;;;;;10.67;9.63;;;14.90;99.90;;;;;;5092076;28;20438;-39
2022/11/05 09:43:41;;;;;;;12.10;9.17;;;15.00;99.90;;;;;;5091285;28;20426;-39
2022/11/05 09:46:20;;;;;;;12.90;9.07;;;15.00;99.90;;;;;;5090114;28;20422;-38
2022/11/05 09:48:51;;;;;;;11.90;9.00;;;15.00;99.90;;;;;;5083986;28;20422;-38
2022/11/05 09:51:18;;;;;;;10.53;7.93;;;15.00;99.90;;;;;;5092921;28;20517;-38
2022/11/05 09:53:44;;;;;;;12.10;8.77;;;15.00;99.90;;;;;;5092389;28;20435;-38
2022/11/05 09:56:20;;;;;;;9.07;7.50;;;15.00;99.90;;;;;;5092724;28;20487;-38
2022/11/05 09:59:01;;;;;;;10.00;7.30;;;15.10;99.90;;;;;;5092249;28;20460;-38
2022/11/05 10:01:32;;;;;;;13.03;9.13;;;15.20;99.90;;;;;;5092789;28;20793;-38
2022/11/05 10:04:01;;;;;;;12.97;8.67;;;15.20;99.90;;;;;;5092334;28;20418;-39
2022/11/05 10:06:27;;;;;;;9.83;8.10;;;15.10;99.90;;;;;;5092236;28;20842;-38
2022/11/05 10:09:00;;;;;;;13.90;7.33;;;15.20;99.90;;;;;;5090901;28;20487;-38
2022/11/05 10:11:42;;;;;;;8.43;7.63;;;15.20;99.90;;;;;;5091292;28;20757;-38
2022/11/05 10:14:16;;;;;;;11.20;7.20;;;15.10;99.90;;;;;;5091041;28;20448;-39
2022/11/05 10:16:46;;;;;;;9.23;8.13;;;15.00;99.90;;;;;;5091178;28;20477;-38
2022/11/05 10:19:23;;;;;;;8.70;6.60;;;14.90;99.90;;;;;;5091552;28;20458;-39
2022/11/05 10:22:11;;;;;;;8.57;7.20;;;14.90;99.90;;;;;;5082322;28;20598;-38
2022/11/05 10:24:40;;;;;;;12.17;9.83;;;14.90;99.90;;;;;;5089097;28;20580;-38
2022/11/05 10:27:08;;;;;;;11.10;7.03;;;14.90;99.90;;;;;;5090863;28;20434;-38
2022/11/05 10:29:34;;;;;;;8.80;6.67;;;14.90;99.90;;;;;;5091855;28;20426;-38
2022/11/05 10:32:04;;;;;;;8.53;6.50;;;14.80;99.90;;;;;;5089602;28;20429;-38
2022/11/05 10:34:35;;;;;;;6.87;5.70;;;14.80;99.90;;;;;;5091610;28;20521;-38
2022/11/05 10:37:01;;;;;;;7.83;5.50;;;14.70;99.90;;;;;;5091714;28;20763;-38
2022/11/05 10:39:28;;;;;;;7.73;5.70;;;14.60;99.90;;;;;;5084874;28;21254;-38
2022/11/05 10:42:26;;;;;;;9.23;6.40;;;14.60;99.90;;;;;;5090188;28;20470;-38
2022/11/05 10:45:10;;;;;;;8.57;5.70;;;14.50;99.90;;;;;;5062125;28;20426;-38
2022/11/05 10:47:56;;;;;;;8.37;6.13;;;14.30;99.90;;;;;;5090641;28;20406;-38
2022/11/05 10:50:25;;;;;;;9.87;5.90;;;14.20;99.90;;;;;;5091554;28;21109;-38
2022/11/05 10:53:24;;;;;;;8.80;6.03;;;14.20;99.90;;;;;;5091294;28;21160;-38
2022/11/05 10:55:50;;;;;;;8.37;6.27;;;14.20;99.90;;;;;;5079030;28;20499;-38
2022/11/05 10:58:16;;;;;;;9.87;5.77;;;14.10;99.90;;;;;;5091450;28;20763;-39
2022/11/05 11:01:01;;;;;;;8.13;5.53;;;14.10;99.90;;;;;;5091220;28;20434;-38
2022/11/05 11:03:49;;;;;;;8.43;5.00;;;14.00;99.90;;;;;;5091176;28;20723;-38
2022/11/05 11:06:35;;;;;;;7.87;5.50;;;14.00;99.90;;;;;;5091494;28;20806;-38
2022/11/05 11:09:04;;;;;;;7.60;4.83;;;13.90;99.90;;;;;;5090837;28;20427;-38
2022/11/05 11:11:34;;;;;;;7.73;5.10;;;13.90;99.90;;;;;;5091101;28;20422;-38
2022/11/05 11:14:10;;;;;;;7.47;5.10;;;13.90;99.90;;;;;;5083448;28;20442;-38
2022/11/05 11:16:39;;;;;;;6.53;5.23;;;13.80;99.90;;;;;;5079458;28;20443;-38
2022/11/05 11:19:25;;;;;;;7.20;4.13;;;13.90;99.90;;;;;;5086602;28;20470;-39
2022/11/05 11:22:20;;;;;;;9.07;4.90;;;13.80;99.90;;;;;;5087869;28;20856;-38
2022/11/05 11:24:52;;;;;;;7.77;5.40;;;13.90;99.90;;;;;;5072961;28;20439;-38
2022/11/05 11:27:32;;;;;;;7.77;4.70;;;13.80;99.90;;;;;;5083350;28;20511;-38
2022/11/05 11:30:00;;;;;;;6.83;4.93;;;13.80;99.90;;;;;;5082134;28;20442;-38
2022/11/05 11:32:31;;;;;;;6.20;5.20;;;13.80;99.90;;;;;;5081863;28;20435;-38
2022/11/05 11:34:58;;;;;;;6.63;4.47;;;13.80;99.90;;;;;;5084524;28;20430;-39
2022/11/05 11:37:40;;;;;;;7.13;4.83;;;13.80;99.90;;;;;;5083151;28;20478;-39
2022/11/05 11:40:27;;;;;;;7.60;4.30;;;13.80;99.90;;;;;;5089981;28;20503;-38
2022/11/05 11:42:58;;;;;;;6.37;4.63;;;13.80;99.90;;;;;;5082828;28;20418;-39
2022/11/05 11:45:32;;;;;;;5.63;5.00;;;13.70;99.90;;;;;;5087091;28;20475;-38
2022/11/05 11:48:03;;;;;;;8.70;5.30;;;13.70;99.90;;;;;;5086732;28;20426;-39
2022/11/05 11:50:36;;;;;;;6.67;4.40;;;13.60;99.90;;;;;;5089200;28;20833;-38
2022/11/05 11:53:20;;;;;;;5.83;5.23;;;13.70;99.90;;;;;;5087427;28;20437;-38
2022/11/05 11:56:04;;;;;;;7.23;5.63;;;13.70;99.90;;;;;;5079291;28;20499;-39
2022/11/05 11:58:51;;;;;;;6.50;5.00;;;13.90;99.90;;;;;;5087461;28;20430;-39
2022/11/05 12:01:22;;;;;;;8.77;5.67;;;14.10;99.90;;;;;;5089100;28;20410;-39
2022/11/05 12:03:58;;;;;;;11.63;5.77;;;14.20;99.90;;;;;;5085944;28;20426;-38
2022/11/05 12:06:35;;;;;;;9.33;6.40;;;14.30;99.90;;;;;;5089918;28;20922;-38
2022/11/05 12:09:28;;;;;;;11.90;5.60;;;14.40;99.90;;;;;;5089717;28;20426;-38
2022/11/05 12:12:12;;;;;;;9.63;5.97;;;14.30;99.90;;;;;;5090213;28;20411;-38
2022/11/05 12:14:56;;;;;;;14.10;6.43;;;14.30;99.90;;;;;;5089992;28;20921;-38
2022/11/05 12:17:27;;;;;;;20.97;8.43;;;14.20;99.90;;;;;;5090343;28;20414;-38
2022/11/05 12:20:11;;;;;;;7.80;6.00;;;14.10;99.90;;;;;;5089631;28;21023;-38
2022/11/05 12:22:45;;;;;;;8.43;6.53;;;14.00;99.90;;;;;;5088607;28;20425;-38
2022/11/05 12:25:29;;;;;;;6.73;5.33;;;14.00;99.90;;;;;;5088876;28;20450;-38
2022/11/05 12:28:16;;;;;;;7.87;5.80;;;13.90;99.90;;;;;;5090004;28;20418;-38
2022/11/05 12:31:30;;;;;;;8.27;4.70;;;13.80;99.90;;;;;;5089642;28;20406;-38
2022/11/05 12:34:12;;;;;;;39.80;8.30;;;13.70;99.90;;;;;;5078463;28;20804;-38
2022/11/05 12:37:03;;;;;;;7.77;5.37;;;13.70;99.90;;;;;;5090005;28;20754;-38
2022/11/05 12:40:01;;;;;;;10.50;6.77;;;13.70;99.90;;;;;;5089640;28;20819;-38
2022/11/05 12:43:04;;;;;;;7.57;5.83;;;13.60;99.90;;;;;;5089527;28;20399;-38
2022/11/05 12:46:02;;;;;;;99.87;14.67;;;13.50;99.90;;;;;;5089974;28;20405;-38
2022/11/05 12:49:09;;;;;;;9.23;5.97;;;13.40;99.90;;;;;;5088300;28;20398;-38
2022/11/05 12:51:59;;;;;;;7.80;6.00;;;13.40;99.90;;;;;;5089848;28;21009;-38
2022/11/05 12:54:57;;;;;;;7.13;5.93;;;13.40;99.90;;;;;;5088908;28;20441;-38
2022/11/05 12:57:23;;;;;;;8.93;5.00;;;13.40;99.90;;;;;;5081527;28;21393;-39
2022/11/05 13:00:01;;;;;;;7.67;5.50;;;13.40;99.90;;;;;;5087855;28;20473;-39
2022/11/05 13:02:44;;;;;;;8.60;5.93;;;13.30;99.90;;;;;;5093303;28;20433;-38
2022/11/05 13:05:18;;;;;;;6.47;5.27;;;13.30;99.90;;;;;;5093371;28;21073;-38
2022/11/05 13:08:02;;;;;;;7.73;6.07;;;13.20;99.90;;;;;;5093283;28;20490;-38
2022/11/05 13:10:40;;;;;;;7.27;5.63;;;13.10;99.90;;;;;;5091461;28;20425;-38
2022/11/05 13:13:23;;;;;;;9.53;6.23;;;13.10;99.90;;;;;;5089888;28;20487;-38
2022/11/05 13:16:17;;;;;;;8.63;6.00;;;13.00;99.90;;;;;;5085480;28;20422;-38
2022/11/05 13:18:54;;;;;;;9.97;5.47;;;13.00;99.90;;;;;;5086348;28;20470;-39
2022/11/05 13:21:23;;;;;;;6.80;5.80;;;13.10;99.90;;;;;;5090679;28;20422;-38
2022/11/05 13:24:24;;;;;;;10.23;6.50;;;13.10;99.90;;;;;;5091379;28;20919;-39
2022/11/05 13:26:55;;;;;;;7.80;5.53;;;13.10;99.90;;;;;;5091551;28;20410;-38
2022/11/05 13:29:46;;;;;;;5.47;4.67;;;13.10;99.90;;;;;;5091835;28;20531;-39
2022/11/05 13:32:31;;;;;;;7.13;5.10;;;13.00;99.90;;;;;;5088032;28;20414;-38
2022/11/05 13:35:03;;;;;;;9.13;5.60;;;13.10;99.90;;;;;;5089732;28;20530;-39
2022/11/05 13:40:28;;;;;;;7.20;5.00;;;13.00;99.90;;;;;;5089787;28;20469;-38
2022/11/05 13:43:17;;;;;;;9.03;5.00;;;13.00;99.90;;;;;;5089278;28;20450;-39
2022/11/05 13:46:07;;;;;;;6.70;4.57;;;13.00;99.90;;;;;;5070543;28;20426;-38
2022/11/05 13:48:54;;;;;;;7.23;4.80;;;13.00;99.90;;;;;;5072646;28;20834;-38
2022/11/05 13:51:39;;;;;;;5.90;4.50;;;13.00;99.90;;;;;;5072459;28;20420;-38